Time;durP1;ratioP1;P1;durP2;ratioP2;P2;SDS_P1;SDS_P2;PMS_P1;PMS_P2;Temp;Humidity;BMP_temperature;BMP_pressure;BME280_temperature;BME280_humidity;BME280_pressure;Samples;Min_cycle;Max_cycle;Signal;HPM_P1;HPM_P2
2021/07/06 02:45:46;;;;;;;4.40;2.45;;;19.20;83.90;;;;;;5331752;25;20052;-73
2021/07/06 02:48:12;;;;;;;4.68;1.40;;;19.30;84.30;;;;;;4728409;30;20043;-72
2021/07/06 02:50:40;;;;;;;3.20;2.28;;;19.40;83.00;;;;;;4734651;30;20029;-72
2021/07/06 02:53:10;;;;;;;5.80;2.15;;;19.50;82.50;;;;;;4726863;30;20029;-73
2021/07/06 02:55:37;;;;;;;2.50;1.63;;;19.60;82.30;;;;;;4732204;30;20052;-72
2021/07/06 02:58:03;;;;;;;5.23;1.50;;;19.70;82.50;;;;;;4726793;30;20025;-73
2021/07/06 03:00:31;;;;;;;4.43;2.03;;;19.70;81.90;;;;;;4741379;30;20274;-73
2021/07/06 03:03:16;;;;;;;2.45;1.55;;;19.70;81.30;;;;;;4745885;30;20273;-72
2021/07/06 03:05:41;;;;;;;5.63;2.22;;;19.70;81.20;;;;;;4740231;30;20048;-73
2021/07/06 03:08:07;;;;;;;3.75;2.22;;;19.70;81.90;;;;;;4740877;30;20078;-73
2021/07/06 03:10:36;;;;;;;4.97;2.25;;;19.70;81.00;;;;;;4739670;30;20248;-73
2021/07/06 03:13:03;;;;;;;4.75;2.42;;;19.70;81.00;;;;;;4731339;30;20033;-73
2021/07/06 03:15:31;;;;;;;5.25;3.38;;;19.70;81.10;;;;;;4746149;30;20024;-72
2021/07/06 03:17:57;;;;;;;10.02;3.90;;;19.70;81.60;;;;;;4742841;30;20043;-73
2021/07/06 03:20:25;;;;;;;7.93;3.37;;;19.70;81.80;;;;;;4730753;30;20092;-72
2021/07/06 03:22:51;;;;;;;4.18;2.88;;;19.70;82.00;;;;;;4735393;30;20036;-73
2021/07/06 03:25:20;;;;;;;4.65;2.92;;;19.70;82.40;;;;;;4731221;30;20029;-73
2021/07/06 03:27:46;;;;;;;4.97;2.90;;;19.70;82.20;;;;;;4730593;30;20025;-73
2021/07/06 03:30:15;;;;;;;5.80;1.93;;;19.70;82.40;;;;;;4743876;30;20095;-72
2021/07/06 03:32:41;;;;;;;5.80;2.17;;;19.70;81.90;;;;;;4736576;30;20052;-73
2021/07/06 03:35:08;;;;;;;6.88;1.77;;;19.70;81.90;;;;;;4735476;30;20264;-73
2021/07/06 03:37:35;;;;;;;2.88;2.13;;;19.80;82.10;;;;;;4733649;30;20032;-74
2021/07/06 03:40:01;;;;;;;7.93;1.90;;;19.70;82.30;;;;;;4740876;30;20078;-73
2021/07/06 03:42:26;;;;;;;3.20;1.85;;;19.80;81.90;;;;;;4733449;30;20041;-73
2021/07/06 03:44:52;;;;;;;5.68;2.08;;;19.80;82.80;;;;;;4733020;30;20049;-73
2021/07/06 03:47:18;;;;;;;3.17;2.10;;;19.80;82.60;;;;;;4727035;30;20064;-73
2021/07/06 03:49:44;;;;;;;3.22;1.85;;;19.80;82.80;;;;;;4720109;30;20040;-72
2021/07/06 03:52:09;;;;;;;4.40;1.85;;;19.80;82.50;;;;;;4722656;30;20069;-73
2021/07/06 03:54:35;;;;;;;2.85;1.98;;;19.90;82.40;;;;;;4716473;30;20064;-73
2021/07/06 03:57:01;;;;;;;3.63;1.92;;;19.90;82.40;;;;;;4725314;30;20033;-74
2021/07/06 03:59:28;;;;;;;3.50;2.05;;;19.90;82.70;;;;;;4727819;30;20099;-74
2021/07/06 04:01:54;;;;;;;3.97;2.47;;;20.00;82.20;;;;;;4724020;30;20309;-73
2021/07/06 04:04:20;;;;;;;6.20;2.33;;;19.90;82.10;;;;;;4726738;30;20025;-73
2021/07/06 04:06:46;;;;;;;8.68;3.03;;;20.00;82.20;;;;;;4727361;30;20040;-73
2021/07/06 04:09:12;;;;;;;6.57;3.53;;;20.00;82.10;;;;;;4727418;30;20068;-73
2021/07/06 04:11:38;;;;;;;14.90;4.50;;;20.10;82.30;;;;;;4727683;30;20045;-74
2021/07/06 04:14:05;;;;;;;9.23;3.22;;;20.10;82.20;;;;;;4728255;30;20064;-73
2021/07/06 04:16:30;;;;;;;7.57;2.92;;;20.20;81.70;;;;;;4731752;30;20329;-73
2021/07/06 04:18:56;;;;;;;8.25;3.25;;;20.20;81.60;;;;;;4728447;30;20075;-73
2021/07/06 04:21:22;;;;;;;9.05;2.90;;;20.30;80.80;;;;;;4727260;30;20108;-73
2021/07/06 04:23:48;;;;;;;7.10;3.00;;;20.30;80.80;;;;;;4728238;30;20137;-73
2021/07/06 04:26:13;;;;;;;9.52;2.72;;;20.40;80.80;;;;;;4726948;30;20072;-73
2021/07/06 04:28:39;;;;;;;8.18;3.30;;;20.50;80.90;;;;;;4726989;30;20041;-74
2021/07/06 04:31:05;;;;;;;9.38;3.20;;;20.60;80.90;;;;;;4727237;30;20240;-72
2021/07/06 04:33:31;;;;;;;13.85;3.33;;;20.60;80.60;;;;;;4728035;30;20135;-73
2021/07/06 04:35:57;;;;;;;6.68;2.75;;;20.80;81.10;;;;;;4725252;30;20214;-73
2021/07/06 04:38:23;;;;;;;6.18;3.22;;;20.90;80.00;;;;;;4726876;30;20220;-74
2021/07/06 04:40:49;;;;;;;7.32;3.25;;;21.00;79.20;;;;;;4725940;30;20023;-73
2021/07/06 04:43:15;;;;;;;21.15;4.38;;;21.10;78.70;;;;;;4706586;30;20429;-73
2021/07/06 04:45:40;;;;;;;16.55;3.63;;;21.10;77.90;;;;;;4728844;30;20102;-73
2021/07/06 04:48:06;;;;;;;14.68;4.00;;;21.20;76.80;;;;;;4726610;30;20037;-74
2021/07/06 04:50:36;;;;;;;8.40;2.53;;;21.30;76.10;;;;;;4727665;30;20225;-73
2021/07/06 04:53:02;;;;;;;29.73;4.85;;;21.40;75.10;;;;;;4731589;30;20037;-73
2021/07/06 04:55:28;;;;;;;6.97;2.30;;;21.40;75.20;;;;;;4722149;30;20029;-73
2021/07/06 04:57:54;;;;;;;19.10;3.42;;;21.50;74.40;;;;;;4727913;30;20048;-73
2021/07/06 05:00:20;;;;;;;14.73;4.15;;;21.60;73.70;;;;;;4727924;30;20127;-76
2021/07/06 05:02:46;;;;;;;13.90;3.90;;;21.60;74.40;;;;;;4727627;30;20096;-75
2021/07/06 05:05:13;;;;;;;10.05;2.95;;;21.70;74.90;;;;;;4726519;30;20104;-75
2021/07/06 05:07:39;;;;;;;10.40;3.10;;;21.80;73.70;;;;;;4726545;30;20093;-76
2021/07/06 05:10:09;;;;;;;6.97;2.53;;;21.90;73.00;;;;;;4727660;30;20033;-74
2021/07/06 05:12:35;;;;;;;10.15;2.28;;;21.90;73.10;;;;;;4727389;30;20036;-73
2021/07/06 05:15:02;;;;;;;12.63;2.65;;;22.00;72.50;;;;;;4727371;30;20045;-73
2021/07/06 05:17:28;;;;;;;6.55;2.60;;;22.10;72.00;;;;;;4732013;30;20071;-75
2021/07/06 05:19:54;;;;;;;10.30;3.10;;;22.20;72.40;;;;;;4727599;30;20033;-74
2021/07/06 05:22:21;;;;;;;9.63;2.83;;;22.30;71.10;;;;;;4727412;30;20040;-74
2021/07/06 05:24:47;;;;;;;;;;;22.90;70.40;;;;;;4727258;30;20029;-75
2021/07/06 05:27:13;;;;;;;10.68;2.80;;;23.90;69.40;;;;;;4724393;30;20253;-76
2021/07/06 05:29:39;;;;;;;17.33;3.75;;;25.20;64.40;;;;;;4723432;30;20056;-73
2021/07/06 05:32:05;;;;;;;28.88;3.85;;;26.30;60.40;;;;;;4711639;30;20040;-76
2021/07/06 05:34:31;;;;;;;12.63;2.83;;;27.30;57.10;;;;;;4727295;30;20115;-76
2021/07/06 05:36:57;;;;;;;8.67;3.00;;;28.00;53.90;;;;;;4727016;30;20056;-76
2021/07/06 05:39:23;;;;;;;12.07;2.40;;;28.30;52.50;;;;;;4727196;30;20025;-76
2021/07/06 05:41:49;;;;;;;13.20;2.30;;;28.80;52.20;;;;;;4726150;30;20248;-75
2021/07/06 05:44:15;;;;;;;7.60;1.92;;;29.20;50.50;;;;;;4725533;30;20029;-75
2021/07/06 05:46:41;;;;;;;5.90;2.03;;;29.70;49.10;;;;;;4729540;30;20083;-73
2021/07/06 05:49:07;;;;;;;10.03;2.33;;;30.10;49.50;;;;;;4727168;30;20112;-74
2021/07/06 05:51:33;;;;;;;4.63;1.70;;;30.40;47.80;;;;;;4726971;30;20276;-74
2021/07/06 05:53:58;;;;;;;17.77;2.73;;;30.80;48.00;;;;;;4720713;30;20060;-74
2021/07/06 05:56:24;;;;;;;29.23;2.87;;;31.20;46.60;;;;;;4707111;30;20037;-74
2021/07/06 05:58:50;;;;;;;22.17;2.70;;;30.90;46.70;;;;;;4724326;30;20036;-74
2021/07/06 06:01:16;;;;;;;12.53;2.10;;;30.80;47.40;;;;;;4725009;30;20048;-74
2021/07/06 06:03:42;;;;;;;11.25;1.83;;;30.70;48.00;;;;;;4722750;30;20319;-73
2021/07/06 06:06:09;;;;;;;12.45;2.67;;;30.60;47.40;;;;;;4720138;30;20025;-74
2021/07/06 06:08:36;;;;;;;6.97;1.73;;;30.20;47.40;;;;;;4709993;30;20377;-74
2021/07/06 06:11:04;;;;;;;6.25;1.98;;;30.10;47.80;;;;;;4724890;30;20036;-73
2021/07/06 06:13:29;;;;;;;3.75;1.45;;;29.80;49.30;;;;;;4721565;30;20045;-74
2021/07/06 06:15:55;;;;;;;5.80;1.40;;;29.80;49.50;;;;;;4724529;30;20079;-73
2021/07/06 06:18:21;;;;;;;3.83;1.50;;;29.90;48.60;;;;;;4725267;30;20040;-74
2021/07/06 06:20:47;;;;;;;3.00;1.40;;;29.80;49.50;;;;;;4725412;30;20315;-74
2021/07/06 06:23:12;;;;;;;7.33;2.27;;;29.80;49.60;;;;;;4725252;30;20039;-73
2021/07/06 06:25:38;;;;;;;6.03;1.20;;;29.70;49.80;;;;;;4729046;30;20036;-73
2021/07/06 06:28:06;;;;;;;3.67;1.37;;;29.80;49.90;;;;;;4726226;30;20029;-74
2021/07/06 06:30:32;;;;;;;5.25;1.30;;;29.80;49.90;;;;;;4726305;30;20280;-74
2021/07/06 06:32:57;;;;;;;3.70;1.40;;;30.00;48.30;;;;;;4725178;30;20037;-75
2021/07/06 06:35:23;;;;;;;2.13;1.10;;;29.90;48.40;;;;;;4725917;30;20416;-76
2021/07/06 06:37:49;;;;;;;9.17;1.73;;;29.90;48.80;;;;;;4730117;30;20079;-76
2021/07/06 06:40:15;;;;;;;3.63;1.40;;;30.00;49.00;;;;;;4728915;30;20049;-76
2021/07/06 06:42:41;;;;;;;6.77;1.57;;;30.10;49.30;;;;;;4730057;30;20305;-76
2021/07/06 06:45:10;;;;;;;11.97;2.47;;;30.20;48.10;;;;;;4728471;30;20044;-75
2021/07/06 06:47:37;;;;;;;7.38;1.75;;;29.90;48.60;;;;;;4723555;30;20049;-75
2021/07/06 06:50:05;;;;;;;7.85;1.40;;;29.70;48.30;;;;;;4734162;30;20064;-76
2021/07/06 06:52:31;;;;;;;5.00;1.88;;;29.50;49.20;;;;;;4729371;30;20360;-77
2021/07/06 06:54:56;;;;;;;7.60;1.65;;;29.40;49.20;;;;;;4726264;30;20341;-76
2021/07/06 06:57:23;;;;;;;10.23;1.90;;;29.50;49.30;;;;;;4735156;30;20134;-76
2021/07/06 06:59:49;;;;;;;9.20;1.58;;;29.60;50.20;;;;;;4728696;30;20369;-76
2021/07/06 07:02:21;;;;;;;7.10;1.53;;;29.80;50.00;;;;;;4714275;30;20039;-76
2021/07/06 07:04:50;;;;;;;6.03;1.60;;;30.00;49.90;;;;;;4729782;30;20040;-76
2021/07/06 07:07:17;;;;;;;10.18;1.90;;;30.20;49.40;;;;;;4728596;30;20112;-76
2021/07/06 07:09:43;;;;;;;6.05;2.15;;;30.50;47.40;;;;;;4729725;30;20166;-76
2021/07/06 07:12:09;;;;;;;8.65;1.42;;;30.30;47.80;;;;;;4714088;30;20040;-76
2021/07/06 07:14:36;;;;;;;7.00;1.93;;;30.20;48.50;;;;;;4729368;30;20264;-76
2021/07/06 07:17:03;;;;;;;4.60;1.73;;;30.00;48.00;;;;;;4729664;30;20569;-76
2021/07/06 07:19:29;;;;;;;5.72;1.65;;;29.90;47.90;;;;;;4729592;30;20036;-76
2021/07/06 07:21:55;;;;;;;3.70;1.70;;;29.90;48.80;;;;;;4729622;30;20096;-76
2021/07/06 07:24:20;;;;;;;14.80;2.17;;;29.90;49.00;;;;;;4729134;30;20048;-76
2021/07/06 07:26:46;;;;;;;6.43;1.53;;;29.80;49.00;;;;;;4727942;30;20091;-75
2021/07/06 07:29:13;;;;;;;9.13;1.47;;;29.80;49.30;;;;;;4727023;30;20375;-76
2021/07/06 07:31:38;;;;;;;2.10;1.33;;;29.80;48.90;;;;;;4727000;30;20040;-75
2021/07/06 07:34:04;;;;;;;10.37;1.40;;;29.90;49.10;;;;;;4726757;30;20324;-76
2021/07/06 07:36:30;;;;;;;5.80;1.30;;;30.10;49.10;;;;;;4712777;30;20284;-76
2021/07/06 07:38:58;;;;;;;2.67;1.40;;;30.20;47.80;;;;;;4713204;30;20030;-77
2021/07/06 07:41:23;;;;;;;7.13;1.73;;;30.10;48.20;;;;;;4719336;30;20076;-76
2021/07/06 07:43:53;;;;;;;10.40;2.40;;;30.00;48.50;;;;;;4718236;30;20029;-76
2021/07/06 07:46:20;;;;;;;7.70;2.10;;;30.10;48.50;;;;;;4727833;30;20085;-77
2021/07/06 07:48:46;;;;;;;8.13;2.00;;;30.20;49.40;;;;;;4728857;30;20033;-76
2021/07/06 07:51:12;;;;;;;4.57;1.65;;;30.40;48.30;;;;;;4727960;30;20036;-76
2021/07/06 07:53:38;;;;;;;6.90;1.73;;;30.50;48.00;;;;;;4726652;30;20029;-75
2021/07/06 07:56:04;;;;;;;7.67;2.30;;;30.60;46.90;;;;;;4725754;30;20040;-76
2021/07/06 07:58:30;;;;;;;6.03;2.28;;;30.40;48.50;;;;;;4728662;30;20025;-75
2021/07/06 08:00:56;;;;;;;7.50;2.30;;;30.50;48.20;;;;;;4725863;30;20032;-77
2021/07/06 08:03:22;;;;;;;5.13;1.77;;;30.50;48.70;;;;;;4726860;30;20029;-76
2021/07/06 08:05:48;;;;;;;5.33;2.00;;;30.60;47.80;;;;;;4719469;30;20032;-76
2021/07/06 08:08:14;;;;;;;10.97;2.03;;;30.70;47.80;;;;;;4721363;30;20037;-76
2021/07/06 08:10:40;;;;;;;;;;;30.70;47.40;;;;;;4716558;30;20029;-75
2021/07/06 08:13:06;;;;;;;7.45;2.00;;;30.70;47.90;;;;;;4716627;30;19993;-75
2021/07/06 08:15:32;;;;;;;7.27;2.30;;;30.80;48.70;;;;;;4720855;30;20096;-76
2021/07/06 08:17:58;;;;;;;7.37;2.40;;;31.10;46.80;;;;;;4724302;30;20271;-75
2021/07/06 08:20:24;;;;;;;5.27;2.23;;;31.30;47.70;;;;;;4725646;30;20029;-76
2021/07/06 08:22:51;;;;;;;5.93;1.80;;;31.30;46.50;;;;;;4723344;30;20029;-76
2021/07/06 08:25:17;;;;;;;5.65;1.70;;;31.20;46.30;;;;;;4716199;30;20013;-75
2021/07/06 08:27:43;;;;;;;8.37;1.77;;;31.30;46.30;;;;;;4726360;30;20217;-76
2021/07/06 08:30:09;;;;;;;4.27;1.67;;;31.40;46.30;;;;;;4717095;30;20036;-76
2021/07/06 08:32:35;;;;;;;7.50;2.00;;;31.60;45.60;;;;;;4728350;30;20108;-76
2021/07/06 08:35:02;;;;;;;10.60;2.23;;;31.70;44.60;;;;;;4728086;30;20083;-76
2021/07/06 08:37:28;;;;;;;3.63;2.20;;;31.70;46.00;;;;;;4712677;30;20055;-76
2021/07/06 08:39:54;;;;;;;7.87;2.13;;;31.80;45.50;;;;;;4728433;30;20032;-76
2021/07/06 08:42:21;;;;;;;7.57;2.20;;;31.80;43.70;;;;;;4727130;30;20037;-76
2021/07/06 08:44:47;;;;;;;3.13;1.95;;;31.60;45.00;;;;;;4727585;30;20093;-76
2021/07/06 08:47:16;;;;;;;4.57;1.80;;;31.70;44.10;;;;;;4726598;30;20245;-75
2021/07/06 08:49:46;;;;;;;2.35;1.80;;;31.80;45.00;;;;;;4727073;30;20037;-76
2021/07/06 08:52:14;;;;;;;9.50;2.33;;;32.00;45.10;;;;;;4726596;30;20054;-75
2021/07/06 08:54:40;;;;;;;2.47;1.88;;;32.10;45.30;;;;;;4726384;30;20408;-75
2021/07/06 08:57:06;;;;;;;3.73;1.97;;;32.20;43.30;;;;;;4712552;30;20040;-76
2021/07/06 08:59:41;;;;;;;3.67;2.17;;;32.30;44.10;;;;;;4727568;30;20025;-76
2021/07/06 09:02:11;;;;;;;5.15;2.13;;;32.40;43.60;;;;;;4726782;30;20102;-75
2021/07/06 09:04:48;;;;;;;3.83;2.22;;;32.40;43.40;;;;;;4727750;30;20041;-76
2021/07/06 09:07:14;;;;;;;7.70;2.05;;;32.50;43.00;;;;;;4727775;30;20368;-75
2021/07/06 09:09:41;;;;;;;8.68;2.50;;;32.70;44.40;;;;;;4727493;30;20081;-76
2021/07/06 09:12:14;;;;;;;6.03;2.38;;;32.70;43.10;;;;;;4725333;30;20056;-75
2021/07/06 09:14:49;;;;;;;4.20;2.20;;;32.70;43.20;;;;;;4720008;30;20096;-75
2021/07/06 09:17:23;;;;;;;3.00;2.17;;;32.80;42.30;;;;;;4725797;30;20032;-76
2021/07/06 09:19:51;;;;;;;4.50;2.28;;;32.90;41.90;;;;;;4727631;30;20316;-76
2021/07/06 09:22:24;;;;;;;4.30;2.38;;;32.90;42.50;;;;;;4719570;30;20201;-75
2021/07/06 09:24:57;;;;;;;4.78;2.05;;;32.90;43.00;;;;;;4733291;30;20032;-75
2021/07/06 09:27:38;;;;;;;4.05;2.25;;;32.80;43.30;;;;;;4717938;30;20213;-75
2021/07/06 09:30:18;;;;;;;8.00;2.40;;;33.00;43.80;;;;;;4727952;30;20208;-76
2021/07/06 09:32:55;;;;;;;7.03;2.70;;;33.00;44.70;;;;;;4725922;30;20040;-76
2021/07/06 09:35:29;;;;;;;17.65;2.25;;;33.30;42.50;;;;;;4723662;30;20066;-76
2021/07/06 09:38:04;;;;;;;5.57;2.33;;;33.50;43.10;;;;;;4724608;30;20321;-75
2021/07/06 09:40:39;;;;;;;9.90;2.30;;;33.50;42.10;;;;;;4727889;30;20037;-75
2021/07/06 09:43:31;;;;;;;5.88;2.28;;;33.50;42.40;;;;;;4714932;30;20086;-75
2021/07/06 09:45:58;;;;;;;6.80;2.80;;;33.50;43.70;;;;;;4727455;30;20294;-76
2021/07/06 09:48:24;;;;;;;3.60;2.33;;;33.50;42.50;;;;;;4725722;30;20060;-76
2021/07/06 09:50:51;;;;;;;6.47;2.70;;;33.50;42.50;;;;;;4731193;30;20030;-75
2021/07/06 09:53:27;;;;;;;10.57;2.40;;;33.50;42.30;;;;;;4724918;30;20032;-76
2021/07/06 09:55:54;;;;;;;2.88;2.13;;;33.50;41.90;;;;;;4727620;30;20037;-75
2021/07/06 09:58:20;;;;;;;;;;;33.50;41.80;;;;;;4731423;30;20284;-75
2021/07/06 10:00:46;;;;;;;3.30;2.58;;;33.50;42.10;;;;;;4726861;30;19953;-75
2021/07/06 10:03:12;;;;;;;5.30;2.30;;;33.50;42.70;;;;;;4722698;30;20218;-75
2021/07/06 10:05:38;;;;;;;8.50;2.30;;;33.60;42.00;;;;;;4728863;30;20034;-75
2021/07/06 10:08:05;;;;;;;3.65;2.45;;;33.60;40.80;;;;;;4739798;30;20092;-75
2021/07/06 10:10:31;;;;;;;6.90;2.50;;;33.70;40.90;;;;;;4724710;30;20114;-75
2021/07/06 10:12:57;;;;;;;7.80;2.43;;;33.70;42.90;;;;;;4724282;30;20240;-75
2021/07/06 10:15:23;;;;;;;7.83;2.43;;;33.70;42.00;;;;;;4726640;30;20029;-75
2021/07/06 10:17:50;;;;;;;;;;;33.70;41.10;;;;;;4726946;30;20287;-75
2021/07/06 10:20:37;;;;;;;3.42;2.20;;;33.60;39.60;;;;;;4728363;30;19910;-75
2021/07/06 10:23:03;;;;;;;6.43;2.20;;;33.60;41.80;;;;;;4728025;30;20031;-75
2021/07/06 10:25:32;;;;;;;6.40;2.38;;;33.60;40.40;;;;;;4723401;30;20088;-75
2021/07/06 10:28:13;;;;;;;7.18;2.20;;;33.80;40.80;;;;;;4729416;30;20102;-75
2021/07/06 10:30:47;;;;;;;6.63;2.30;;;34.00;40.80;;;;;;4733565;30;20347;-74
2021/07/06 10:33:33;;;;;;;7.60;1.85;;;34.20;41.50;;;;;;4724146;30;20045;-75
2021/07/06 10:36:03;;;;;;;4.80;2.42;;;34.30;39.60;;;;;;4722882;30;20096;-75
2021/07/06 10:38:29;;;;;;;4.35;2.33;;;34.30;38.80;;;;;;4726473;30;20033;-75
2021/07/06 10:41:06;;;;;;;9.48;2.65;;;34.30;39.90;;;;;;4722823;30;20080;-75
2021/07/06 10:43:37;;;;;;;7.72;2.45;;;34.40;40.20;;;;;;4725114;30;20033;-75
2021/07/06 10:46:21;;;;;;;5.78;2.35;;;34.50;39.30;;;;;;4726255;30;20120;-76
2021/07/06 10:48:47;;;;;;;2.28;1.88;;;34.50;38.70;;;;;;4727885;30;20037;-75
2021/07/06 10:51:38;;;;;;;6.17;2.00;;;34.60;39.90;;;;;;4726073;30;20044;-75
2021/07/06 10:54:11;;;;;;;5.50;2.50;;;34.50;38.70;;;;;;4722323;30;20029;-74
2021/07/06 10:56:43;;;;;;;6.25;2.33;;;34.50;38.30;;;;;;4724931;30;20037;-75
2021/07/06 10:59:30;;;;;;;8.82;2.33;;;34.40;38.50;;;;;;4725690;30;20025;-74
2021/07/06 11:02:01;;;;;;;4.00;2.42;;;34.50;39.60;;;;;;4730325;30;20321;-74
2021/07/06 11:04:39;;;;;;;3.95;2.10;;;34.60;40.00;;;;;;4729100;30;20052;-75
2021/07/06 11:07:07;;;;;;;6.13;2.00;;;34.80;39.70;;;;;;4718617;30;20038;-74
2021/07/06 11:09:36;;;;;;;8.55;2.63;;;34.90;38.50;;;;;;4724755;30;20033;-74
2021/07/06 11:12:29;;;;;;;3.25;1.85;;;34.90;39.20;;;;;;4723401;30;20041;-75
2021/07/06 11:14:58;;;;;;;3.15;2.00;;;35.00;37.60;;;;;;4731165;30;20037;-75
2021/07/06 11:17:38;;;;;;;6.75;2.47;;;35.10;39.30;;;;;;4723026;30;20186;-74
2021/07/06 11:20:11;;;;;;;10.05;2.17;;;35.10;39.40;;;;;;4704132;30;20033;-74
2021/07/06 11:22:45;;;;;;;3.80;1.85;;;35.30;38.40;;;;;;4719012;30;20050;-74
2021/07/06 11:25:39;;;;;;;6.30;2.45;;;35.40;38.90;;;;;;4720943;30;20260;-75
2021/07/06 11:28:14;;;;;;;5.60;2.47;;;35.50;37.60;;;;;;4728742;30;20029;-75
2021/07/06 11:30:41;;;;;;;5.35;2.00;;;35.40;36.90;;;;;;4727917;30;20029;-75
2021/07/06 11:33:13;;;;;;;3.60;2.20;;;35.40;38.90;;;;;;4728885;30;20225;-74
2021/07/06 11:35:53;;;;;;;4.55;2.22;;;35.40;37.30;;;;;;4728757;30;20104;-74
2021/07/06 11:38:25;;;;;;;6.18;2.05;;;35.40;36.90;;;;;;4719369;30;20040;-75
2021/07/06 11:41:02;;;;;;;9.50;1.85;;;35.40;36.90;;;;;;4723792;30;20057;-76
2021/07/06 11:43:30;;;;;;;5.28;2.10;;;35.60;37.40;;;;;;4721375;30;20048;-75
2021/07/06 11:46:04;;;;;;;5.90;2.17;;;35.70;36.10;;;;;;4727403;30;20053;-75
2021/07/06 11:48:36;;;;;;;6.05;1.88;;;35.60;35.80;;;;;;4727351;30;20041;-75
2021/07/06 11:51:07;;;;;;;4.88;2.08;;;35.70;35.80;;;;;;4712788;30;20233;-75
2021/07/06 11:53:37;;;;;;;3.67;1.73;;;35.70;37.20;;;;;;4728476;30;20278;-74
2021/07/06 11:56:05;;;;;;;9.05;1.90;;;35.70;36.90;;;;;;4728328;30;20037;-75
2021/07/06 11:58:33;;;;;;;2.67;1.90;;;35.80;36.60;;;;;;4727283;30;20037;-75
2021/07/06 12:01:03;;;;;;;4.47;2.10;;;35.90;35.90;;;;;;4727528;30;20033;-75
2021/07/06 12:03:31;;;;;;;7.45;2.00;;;35.70;34.80;;;;;;4727390;30;20033;-75
2021/07/06 12:06:07;;;;;;;7.85;2.00;;;35.70;35.60;;;;;;4728568;30;20036;-75
2021/07/06 12:08:51;;;;;;;2.15;1.95;;;35.80;35.70;;;;;;4727465;30;20156;-74
2021/07/06 12:11:23;;;;;;;3.70;2.22;;;36.00;35.80;;;;;;4721756;30;20041;-74
2021/07/06 12:13:58;;;;;;;4.75;2.22;;;36.00;35.90;;;;;;4723324;30;20056;-74
2021/07/06 12:16:27;;;;;;;4.82;2.60;;;36.10;36.50;;;;;;4726209;30;20037;-74
2021/07/06 12:19:00;;;;;;;5.53;2.15;;;36.20;36.00;;;;;;4728189;30;20325;-74
2021/07/06 12:21:35;;;;;;;5.28;2.20;;;36.20;37.20;;;;;;4728361;30;20075;-74
2021/07/06 12:24:05;;;;;;;2.78;2.20;;;36.30;34.90;;;;;;4727058;30;20325;-74
2021/07/06 12:26:31;;;;;;;2.22;2.03;;;36.20;35.30;;;;;;4726007;30;20060;-74
2021/07/06 12:28:57;;;;;;;3.95;1.98;;;36.30;36.20;;;;;;4727082;30;20061;-73
2021/07/06 12:31:29;;;;;;;;;;;36.30;35.90;;;;;;4728461;30;20443;-73
2021/07/06 12:34:29;;;;;;;5.63;2.88;;;36.40;35.60;;;;;;4721980;30;19917;-74
2021/07/06 12:36:58;;;;;;;5.22;2.03;;;36.30;35.70;;;;;;4674716;30;20061;-74
2021/07/06 12:39:26;;;;;;;2.28;2.05;;;36.40;36.00;;;;;;4676030;30;20377;-75
2021/07/06 12:41:59;;;;;;;3.90;2.35;;;36.50;35.50;;;;;;4675883;30;20129;-73
2021/07/06 12:44:45;;;;;;;6.75;2.25;;;36.50;34.10;;;;;;4685884;30;20044;-73
2021/07/06 12:47:17;;;;;;;4.72;2.50;;;36.60;35.80;;;;;;4681370;30;20058;-74
2021/07/06 12:50:03;;;;;;;2.67;2.20;;;36.50;35.20;;;;;;4656265;30;20057;-74
2021/07/06 12:52:40;;;;;;;4.70;2.33;;;36.40;35.90;;;;;;4676055;30;20073;-74
2021/07/06 12:55:27;;;;;;;4.43;2.72;;;36.50;34.80;;;;;;4685770;30;20061;-74
2021/07/06 12:58:02;;;;;;;5.15;2.63;;;36.50;36.20;;;;;;4673345;30;20065;-73
2021/07/06 13:00:28;;;;;;;5.80;2.28;;;36.50;35.10;;;;;;4689252;30;20052;-73
2021/07/06 13:03:12;;;;;;;6.78;2.38;;;36.50;34.80;;;;;;4685232;30;20041;-74
2021/07/06 13:05:45;;;;;;;4.53;2.35;;;36.80;38.00;;;;;;4673785;30;20385;-74
2021/07/06 13:08:17;;;;;;;3.10;2.45;;;36.90;35.10;;;;;;4685928;30;20042;-74
2021/07/06 13:10:43;;;;;;;4.38;2.38;;;36.90;34.70;;;;;;4664476;30;20302;-73
2021/07/06 13:13:11;;;;;;;5.57;2.45;;;37.00;35.00;;;;;;4695358;30;20037;-74
2021/07/06 13:15:38;;;;;;;3.78;1.88;;;37.00;33.00;;;;;;4720503;30;20041;-74
2021/07/06 13:18:09;;;;;;;2.53;2.33;;;36.90;33.80;;;;;;4710315;30;20036;-74
2021/07/06 13:20:37;;;;;;;2.80;2.00;;;36.80;33.50;;;;;;4717520;30;20041;-74
2021/07/06 13:23:03;;;;;;;2.55;2.35;;;36.70;33.20;;;;;;4718122;30;20033;-74
2021/07/06 13:25:29;;;;;;;2.85;2.10;;;36.60;33.20;;;;;;4721098;30;20029;-73
2021/07/06 13:27:59;;;;;;;3.25;1.98;;;36.50;33.20;;;;;;4719073;30;20051;-74
2021/07/06 13:30:26;;;;;;;3.95;2.42;;;36.60;33.20;;;;;;4716593;30;20072;-73
2021/07/06 13:32:53;;;;;;;6.30;2.95;;;36.70;34.60;;;;;;4720091;30;20064;-73
2021/07/06 13:35:19;;;;;;;;;;;36.60;34.40;;;;;;4716640;30;20324;-74
2021/07/06 13:37:45;;;;;;;;;;;36.50;34.50;;;;;;4720783;30;19926;-74
2021/07/06 13:40:14;;;;;;;4.80;2.78;;;36.50;34.50;;;;;;4718030;30;19914;-73
2021/07/06 13:42:40;;;;;;;9.32;2.80;;;36.50;34.00;;;;;;4719999;30;20060;-74
2021/07/06 13:45:09;;;;;;;3.22;2.22;;;36.50;33.80;;;;;;4726470;30;20029;-73
2021/07/06 13:47:38;;;;;;;4.00;2.80;;;36.50;33.40;;;;;;4726445;30;20075;-74
2021/07/06 13:50:05;;;;;;;5.25;2.80;;;36.50;33.40;;;;;;4723980;30;20040;-73
2021/07/06 13:52:31;;;;;;;3.50;3.10;;;36.60;34.80;;;;;;4719749;30;20092;-74
2021/07/06 13:54:59;;;;;;;4.20;2.88;;;36.70;34.10;;;;;;4739589;30;20044;-74
2021/07/06 13:57:24;;;;;;;5.53;2.83;;;36.80;34.20;;;;;;4725003;30;20044;-73
2021/07/06 13:59:50;;;;;;;3.30;3.00;;;36.80;35.40;;;;;;4720739;30;20024;-74
2021/07/06 14:02:17;;;;;;;5.13;3.30;;;36.80;34.00;;;;;;4720949;30;20052;-74
2021/07/06 14:04:44;;;;;;;9.52;3.55;;;36.80;33.90;;;;;;4729357;30;20039;-74
2021/07/06 14:07:10;;;;;;;6.35;3.35;;;36.70;34.20;;;;;;4722740;30;20057;-74
2021/07/06 14:09:36;;;;;;;;;;;36.60;33.90;;;;;;4715465;30;20201;-76
2021/07/06 14:12:02;;;;;;;;;;;36.50;34.80;;;;;;4729703;30;19910;-75
2021/07/06 14:14:28;;;;;;;5.55;3.13;;;36.50;33.30;;;;;;4731987;30;19910;-76
2021/07/06 14:16:54;;;;;;;3.90;3.57;;;36.60;34.70;;;;;;4725312;30;20073;-77
2021/07/06 14:19:19;;;;;;;3.50;3.20;;;36.50;35.30;;;;;;4726297;30;20268;-77
2021/07/06 14:21:51;;;;;;;9.20;2.97;;;36.50;35.10;;;;;;4723629;30;20283;-77
2021/07/06 14:24:17;;;;;;;4.82;3.33;;;36.50;35.10;;;;;;4726173;30;20062;-76
2021/07/06 14:26:43;;;;;;;4.17;3.77;;;36.60;34.80;;;;;;4728716;30;20232;-77
2021/07/06 14:29:12;;;;;;;5.47;2.83;;;36.60;34.50;;;;;;4723024;30;20275;-77
2021/07/06 14:31:38;;;;;;;4.20;3.80;;;36.50;34.60;;;;;;4726408;30;20037;-77
2021/07/06 14:34:06;;;;;;;9.48;3.80;;;36.40;35.00;;;;;;4726440;30;20083;-77
2021/07/06 14:36:31;;;;;;;6.07;3.15;;;36.30;35.10;;;;;;4724677;30;20048;-77
2021/07/06 14:38:57;;;;;;;6.80;3.43;;;36.40;35.10;;;;;;4725962;30;20256;-76
2021/07/06 14:41:23;;;;;;;3.40;3.10;;;36.40;34.70;;;;;;4729921;30;20178;-76
2021/07/06 14:43:49;;;;;;;5.67;3.80;;;36.40;34.00;;;;;;4723600;30;20324;-77
2021/07/06 14:46:15;;;;;;;5.37;3.47;;;36.30;36.00;;;;;;4723446;30;20366;-76
2021/07/06 14:48:42;;;;;;;5.07;3.28;;;36.10;35.80;;;;;;4720743;30;20228;-77
2021/07/06 14:51:07;;;;;;;;;;;36.20;35.80;;;;;;4724914;30;20328;-76
2021/07/06 14:53:33;;;;;;;;;;;36.10;34.10;;;;;;4722952;30;19910;-77
2021/07/06 14:55:59;;;;;;;5.70;3.83;;;36.10;36.10;;;;;;4719309;30;19915;-77
2021/07/06 14:58:25;;;;;;;4.72;3.17;;;36.20;34.90;;;;;;4717323;30;20029;-76
2021/07/06 15:00:51;;;;;;;7.37;3.50;;;36.20;35.30;;;;;;4730479;30;20074;-77
2021/07/06 15:03:16;;;;;;;9.23;3.90;;;36.20;35.20;;;;;;4711868;30;20379;-76
2021/07/06 15:05:42;;;;;;;6.30;3.50;;;36.20;34.50;;;;;;4735007;30;20033;-77
2021/07/06 15:08:08;;;;;;;6.47;3.47;;;36.10;35.70;;;;;;4728344;30;20100;-77
2021/07/06 15:10:34;;;;;;;3.67;3.30;;;36.10;35.80;;;;;;4730142;30;20045;-77
2021/07/06 15:13:01;;;;;;;8.73;4.13;;;36.20;35.60;;;;;;4732768;30;20025;-76
2021/07/06 15:15:28;;;;;;;5.30;3.97;;;36.20;35.60;;;;;;4733863;30;20078;-75
2021/07/06 15:17:56;;;;;;;4.10;3.70;;;36.10;34.70;;;;;;4734775;30;20033;-75
2021/07/06 15:20:24;;;;;;;4.82;3.80;;;36.20;34.60;;;;;;4731045;30;20033;-75
2021/07/06 15:22:50;;;;;;;4.22;3.63;;;36.20;35.00;;;;;;4732475;30;20072;-75
2021/07/06 15:25:16;;;;;;;7.40;3.75;;;36.10;34.50;;;;;;4720425;30;20041;-75
2021/07/06 15:27:43;;;;;;;4.78;3.75;;;36.10;35.00;;;;;;4730938;30;20045;-75
2021/07/06 15:30:09;;;;;;;6.22;4.10;;;36.00;35.20;;;;;;4736492;30;20096;-75
2021/07/06 15:32:35;;;;;;;10.35;4.18;;;36.00;35.30;;;;;;4733379;30;20037;-75
2021/07/06 15:35:03;;;;;;;4.40;3.40;;;35.90;34.60;;;;;;4735043;30;20033;-75
2021/07/06 15:37:28;;;;;;;7.07;3.58;;;35.90;34.60;;;;;;4740378;30;20032;-74
2021/07/06 15:39:54;;;;;;;9.88;3.80;;;36.00;34.10;;;;;;4733485;30;20139;-75